createdAt,value
2023-02-18T00:01:25.458Z,11.40
2023-02-18T00:03:56.069Z,11.40
2023-02-18T00:06:27.731Z,11.39
2023-02-18T00:08:59.583Z,11.40
2023-02-18T00:11:30.883Z,11.37
2023-02-18T00:14:03.559Z,11.38
2023-02-18T00:16:34.110Z,11.38
2023-02-18T00:19:06.752Z,11.39
2023-02-18T00:21:38.056Z,11.36
2023-02-18T00:24:10.156Z,11.34
2023-02-18T00:26:39.765Z,11.36
2023-02-18T00:29:11.037Z,11.34
2023-02-18T00:31:42.507Z,11.32
2023-02-18T00:34:14.259Z,11.33
2023-02-18T00:36:43.969Z,11.33
2023-02-18T00:39:14.942Z,11.30
2023-02-18T00:41:44.760Z,11.28
2023-02-18T00:44:15.733Z,11.25
2023-02-18T00:46:48.148Z,11.27
2023-02-18T00:49:17.583Z,11.28
2023-02-18T00:51:47.990Z,11.25
2023-02-18T00:54:16.980Z,11.24
2023-02-18T00:56:46.944Z,11.25
2023-02-18T00:59:18.896Z,11.26
2023-02-18T01:01:48.705Z,11.26
2023-02-18T01:04:18.251Z,11.25
2023-02-18T01:06:48.355Z,11.23
2023-02-18T01:09:18.262Z,11.23
2023-02-18T01:11:48.447Z,11.19
2023-02-18T01:14:19.096Z,11.11
2023-02-18T01:16:50.058Z,11.13
2023-02-18T01:19:20.058Z,11.15
2023-02-18T01:21:49.488Z,11.12
2023-02-18T01:24:19.327Z,11.14
2023-02-18T01:26:48.351Z,11.13
2023-02-18T01:29:19.837Z,11.14
2023-02-18T01:31:50.427Z,11.14
2023-02-18T01:34:19.369Z,11.14
2023-02-18T01:36:49.817Z,11.16
2023-02-18T01:39:19.208Z,11.16
2023-02-18T01:41:49.222Z,11.12
2023-02-18T01:44:24.521Z,11.09
2023-02-18T01:46:54.574Z,11.09
2023-02-18T01:49:30.812Z,11.08
2023-02-18T01:52:06.754Z,11.08
2023-02-18T01:54:41.839Z,11.08
2023-02-18T01:57:15.188Z,11.07
2023-02-18T01:59:50.867Z,11.05
2023-02-18T02:02:26.177Z,11.08
2023-02-18T02:04:56.540Z,11.04
2023-02-18T02:07:28.833Z,11.03
2023-02-18T02:10:01.536Z,11.04
2023-02-18T02:12:51.094Z,11.02
2023-02-18T02:15:39.974Z,11.01
2023-02-18T02:18:36.053Z,10.96
2023-02-18T02:21:59.154Z,10.96
2023-02-18T02:25:17.050Z,10.97
2023-02-18T02:28:41.894Z,10.94
2023-02-18T02:31:54.070Z,10.93
2023-02-18T02:34:56.703Z,10.91
2023-02-18T02:37:37.145Z,10.90
2023-02-18T02:40:27.176Z,10.84
2023-02-18T02:43:14.632Z,10.80
2023-02-18T02:46:00.854Z,10.80
2023-02-18T02:48:40.937Z,10.80
2023-02-18T02:51:17.997Z,10.79
2023-02-18T02:53:48.630Z,10.78
2023-02-18T02:56:21.443Z,10.78
2023-02-18T02:58:59.234Z,10.76
2023-02-18T03:01:42.919Z,10.73
2023-02-18T03:05:10.427Z,10.71
2023-02-18T03:08:28.187Z,10.71
2023-02-18T03:11:06.195Z,10.70
2023-02-18T03:13:53.536Z,10.71
2023-02-18T03:16:34.065Z,10.72
2023-02-18T03:19:13.688Z,10.72
2023-02-18T03:21:49.610Z,10.69
2023-02-18T03:24:27.993Z,10.69
2023-02-18T03:27:06.409Z,10.70
2023-02-18T03:29:37.218Z,10.68
2023-02-18T03:32:13.119Z,10.69
2023-02-18T03:34:49.355Z,10.66
2023-02-18T03:37:19.612Z,10.68
2023-02-18T03:39:58.887Z,10.68
2023-02-18T03:42:28.694Z,10.67
2023-02-18T03:44:59.838Z,10.66
2023-02-18T03:47:30.313Z,10.62
2023-02-18T03:49:59.774Z,10.59
2023-02-18T03:52:29.523Z,10.60
2023-02-18T03:55:00.837Z,10.62
2023-02-18T03:57:31.430Z,10.60
2023-02-18T04:00:01.486Z,10.60
2023-02-18T04:02:31.430Z,10.62
2023-02-18T04:05:01.208Z,10.57
2023-02-18T04:07:30.755Z,10.57
2023-02-18T04:10:01.774Z,10.59
2023-02-18T04:12:31.883Z,10.58
2023-02-18T04:15:01.875Z,10.51
2023-02-18T04:17:31.863Z,10.50
2023-02-18T04:20:00.615Z,10.45
2023-02-18T04:22:29.991Z,10.45
2023-02-18T04:25:01.452Z,10.46
2023-02-18T04:27:32.091Z,10.49
2023-02-18T04:30:01.797Z,10.52
2023-02-18T04:32:31.313Z,10.47
2023-02-18T04:35:01.354Z,10.46
2023-02-18T04:37:30.700Z,10.45
2023-02-18T04:40:01.572Z,10.44
2023-02-18T04:42:30.395Z,10.39
2023-02-18T04:45:01.570Z,10.42
2023-02-18T04:47:31.597Z,10.40
2023-02-18T04:50:01.530Z,10.37
2023-02-18T04:52:32.547Z,10.35
2023-02-18T04:55:02.831Z,10.38
2023-02-18T04:57:32.418Z,10.39
2023-02-18T05:00:03.288Z,10.36
2023-02-18T05:02:32.254Z,10.34
2023-02-18T05:05:01.715Z,10.30
2023-02-18T05:07:31.556Z,10.34
2023-02-18T05:10:03.419Z,10.37
2023-02-18T05:12:33.225Z,10.38
2023-02-18T05:15:01.673Z,10.42
2023-02-18T05:17:31.072Z,10.39
2023-02-18T05:20:00.589Z,10.38
2023-02-18T05:22:30.749Z,10.39
2023-02-18T05:25:01.955Z,10.36
2023-02-18T05:27:30.937Z,10.39
2023-02-18T05:30:01.849Z,10.41
2023-02-18T05:32:31.863Z,10.40
2023-02-18T05:35:03.649Z,10.41
2023-02-18T05:37:33.254Z,10.41
2023-02-18T05:40:04.789Z,10.38
2023-02-18T05:42:34.746Z,10.41
2023-02-18T05:45:04.292Z,10.41
2023-02-18T05:47:33.709Z,10.38
2023-02-18T05:50:02.741Z,10.33
2023-02-18T05:52:32.685Z,10.32
2023-02-18T05:55:03.575Z,10.39
2023-02-18T05:57:34.519Z,10.35
2023-02-18T06:00:04.352Z,10.33
2023-02-18T06:02:34.140Z,10.33
2023-02-18T06:05:04.761Z,10.33
2023-02-18T06:07:34.731Z,10.30
2023-02-18T06:10:04.997Z,10.32
2023-02-18T06:12:33.977Z,10.29
2023-02-18T06:15:04.039Z,10.31
2023-02-18T06:17:33.075Z,10.24
2023-02-18T06:20:03.819Z,10.27
2023-02-18T06:22:33.826Z,10.32
2023-02-18T06:25:05.150Z,10.31
2023-02-18T06:27:34.038Z,10.32
2023-02-18T06:30:03.613Z,10.32
2023-02-18T06:32:33.160Z,10.27
2023-02-18T06:35:02.799Z,10.28
2023-02-18T06:37:31.868Z,10.26
2023-02-18T06:40:00.764Z,10.31
2023-02-18T06:42:31.833Z,10.33
2023-02-18T06:45:02.535Z,10.30
2023-02-18T06:47:32.283Z,10.23
2023-02-18T06:50:01.634Z,10.21
2023-02-18T06:52:35.566Z,10.22
2023-02-18T06:55:04.552Z,10.25
2023-02-18T06:57:35.690Z,10.30
2023-02-18T07:00:07.020Z,10.32
2023-02-18T07:02:36.982Z,10.30
2023-02-18T07:05:06.821Z,10.25
2023-02-18T07:07:35.817Z,10.28
2023-02-18T07:10:06.460Z,10.29
2023-02-18T07:12:36.767Z,10.29
2023-02-18T07:15:07.408Z,10.24
2023-02-18T07:17:36.388Z,10.25
2023-02-18T07:20:06.948Z,10.28
2023-02-18T07:22:37.174Z,10.28
2023-02-18T07:25:06.422Z,10.25
2023-02-18T07:27:37.795Z,10.26
2023-02-18T07:30:09.327Z,10.24
2023-02-18T07:32:38.797Z,10.26
2023-02-18T07:35:09.029Z,10.20
2023-02-18T07:37:38.905Z,10.23
2023-02-18T07:40:11.877Z,10.25
2023-02-18T07:42:43.350Z,10.18
2023-02-18T07:45:13.104Z,10.13
2023-02-18T07:47:43.142Z,10.15
2023-02-18T07:50:13.243Z,10.14
2023-02-18T07:52:43.348Z,10.08
2023-02-18T07:55:13.053Z,10.08
2023-02-18T07:57:58.033Z,10.14
2023-02-18T08:00:28.565Z,10.16
2023-02-18T08:02:58.700Z,10.17
2023-02-18T08:05:30.239Z,10.23
2023-02-18T08:08:00.963Z,10.25
2023-02-18T08:10:31.296Z,10.22
2023-02-18T08:13:02.190Z,10.20
2023-02-18T08:15:32.645Z,10.21
2023-02-18T08:18:02.935Z,10.27
2023-02-18T08:20:33.219Z,10.23
2023-02-18T08:23:04.228Z,10.27
2023-02-18T08:25:35.514Z,10.23
2023-02-18T08:28:07.401Z,10.22
2023-02-18T08:30:38.112Z,10.20
2023-02-18T08:33:08.272Z,10.22
2023-02-18T08:35:37.840Z,10.27
2023-02-18T08:38:07.847Z,10.26
2023-02-18T08:40:37.035Z,10.27
2023-02-18T08:43:09.145Z,10.27
2023-02-18T08:45:40.458Z,10.31
2023-02-18T08:48:19.829Z,10.30
2023-02-18T08:50:50.016Z,10.32
2023-02-18T08:53:20.916Z,10.33
2023-02-18T08:55:50.303Z,10.33
2023-02-18T08:58:22.327Z,10.34
2023-02-18T09:00:52.773Z,10.35
2023-02-18T09:03:21.921Z,10.34
2023-02-18T09:05:51.741Z,10.39
2023-02-18T09:08:22.219Z,10.38
2023-02-18T09:10:51.776Z,10.34
2023-02-18T09:13:25.385Z,10.37
2023-02-18T09:16:02.403Z,10.37
2023-02-18T09:18:31.679Z,10.40
2023-02-18T09:21:01.965Z,10.37
2023-02-18T09:23:33.523Z,10.38
2023-02-18T09:26:07.116Z,10.37
2023-02-18T09:28:39.116Z,10.40
2023-02-18T09:31:12.649Z,10.38
2023-02-18T09:33:46.631Z,10.39
2023-02-18T09:36:16.550Z,10.43
2023-02-18T09:38:45.305Z,10.44
2023-02-18T09:41:28.058Z,10.48
2023-02-18T09:44:03.699Z,10.46
2023-02-18T09:46:41.867Z,10.48
2023-02-18T09:49:24.303Z,10.47
2023-02-18T09:51:55.464Z,10.52
2023-02-18T09:54:25.177Z,10.50
2023-02-18T09:56:55.818Z,10.46
2023-02-18T09:59:28.867Z,10.44
2023-02-18T10:01:58.553Z,10.50
2023-02-18T10:04:37.535Z,10.52
2023-02-18T10:07:07.715Z,10.56
2023-02-18T10:09:42.105Z,10.51
2023-02-18T10:12:20.516Z,10.49
2023-02-18T10:14:53.638Z,10.49
2023-02-18T10:17:27.771Z,10.51
2023-02-18T10:19:59.776Z,10.54
2023-02-18T10:22:32.142Z,10.57
2023-02-18T10:25:05.542Z,10.52
2023-02-18T10:27:39.394Z,10.54
2023-02-18T10:30:28.953Z,10.50
2023-02-18T10:33:19.575Z,10.48
2023-02-18T10:35:56.840Z,10.42
2023-02-18T10:38:43.004Z,10.47
2023-02-18T10:41:23.499Z,10.53
2023-02-18T10:44:08.872Z,10.56
2023-02-18T10:46:50.057Z,10.53
2023-02-18T10:49:57.757Z,10.52
2023-02-18T10:52:30.971Z,10.48
2023-02-18T10:55:05.185Z,10.45
2023-02-18T10:57:35.586Z,10.44
2023-02-18T11:00:18.984Z,10.44
2023-02-18T11:03:02.676Z,10.48
2023-02-18T11:05:33.461Z,10.54
2023-02-18T11:08:03.475Z,10.56
2023-02-18T11:10:40.112Z,10.53
2023-02-18T11:13:12.541Z,10.60
2023-02-18T11:15:59.440Z,10.58
2023-02-18T11:18:48.498Z,10.63
2023-02-18T11:21:32.707Z,10.60
2023-02-18T11:24:17.573Z,10.60
2023-02-18T11:26:46.838Z,10.61
2023-02-18T11:29:25.634Z,10.63
2023-02-18T11:31:58.243Z,10.49
2023-02-18T11:34:34.539Z,10.48
2023-02-18T11:37:15.076Z,10.57
2023-02-18T11:39:47.946Z,10.59
2023-02-18T11:42:21.937Z,10.60
2023-02-18T11:44:55.694Z,10.60
2023-02-18T11:47:33.440Z,10.65
2023-02-18T11:50:24.330Z,10.61
2023-02-18T11:52:58.251Z,10.50
2023-02-18T11:55:31.228Z,10.53
2023-02-18T11:58:03.470Z,10.49
2023-02-18T12:00:41.673Z,10.52
2023-02-18T12:03:34.956Z,10.60
2023-02-18T12:06:15.862Z,10.56
2023-02-18T12:08:52.770Z,10.50
2023-02-18T12:11:32.720Z,10.56
2023-02-18T12:14:04.168Z,10.57
2023-02-18T12:16:50.816Z,10.52
2023-02-18T12:19:56.186Z,10.53
2023-02-18T12:22:43.155Z,10.60
2023-02-18T12:25:34.752Z,10.63
2023-02-18T12:28:23.590Z,10.53
2023-02-18T12:31:30.425Z,10.54
2023-02-18T12:34:22.701Z,10.57
2023-02-18T12:37:09.895Z,10.50
2023-02-18T12:40:35.318Z,10.49
2023-02-18T12:43:22.446Z,10.50
2023-02-18T12:46:23.599Z,10.54
2023-02-18T12:49:22.042Z,10.51
2023-02-18T12:52:18.622Z,10.51
2023-02-18T12:55:45.031Z,10.59
2023-02-18T12:58:33.478Z,10.59
2023-02-18T13:01:21.125Z,10.50
2023-02-18T13:04:21.264Z,10.58
2023-02-18T13:07:21.962Z,10.47
2023-02-18T13:10:43.927Z,10.51
2023-02-18T13:13:18.658Z,10.50
2023-02-18T13:15:54.985Z,10.55
2023-02-18T13:18:33.849Z,10.56
2023-02-18T13:21:08.052Z,10.57
2023-02-18T13:23:45.125Z,10.64
2023-02-18T13:26:19.637Z,10.64
2023-02-18T13:29:02.610Z,10.67
2023-02-18T13:31:46.229Z,10.64
2023-02-18T13:34:26.938Z,10.68
2023-02-18T13:37:13.476Z,10.70
2023-02-18T13:39:54.632Z,10.69
2023-02-18T13:42:37.727Z,10.70
2023-02-18T13:45:34.593Z,10.77
2023-02-18T13:48:23.585Z,10.70
2023-02-18T13:50:56.569Z,10.69
2023-02-18T13:53:30.731Z,10.73
2023-02-18T13:56:19.901Z,10.71
2023-02-18T13:58:57.484Z,10.75
2023-02-18T14:01:42.714Z,10.79
2023-02-18T14:04:51.836Z,10.72
2023-02-18T14:07:48.510Z,10.64
2023-02-18T14:10:39.390Z,10.66
2023-02-18T14:13:41.057Z,10.73
2023-02-18T14:16:13.489Z,10.78
2023-02-18T14:19:03.142Z,10.80
2023-02-18T14:21:44.542Z,10.72
2023-02-18T14:24:14.421Z,10.78
2023-02-18T14:26:50.793Z,10.70
2023-02-18T14:29:29.897Z,10.71
2023-02-18T14:32:06.522Z,10.77
2023-02-18T14:35:38.725Z,10.76
2023-02-18T14:38:40.021Z,10.73
2023-02-18T14:41:45.610Z,10.78
2023-02-18T14:44:58.291Z,10.77
2023-02-18T14:47:46.737Z,10.75
2023-02-18T14:50:20.394Z,10.69
2023-02-18T14:52:55.726Z,10.70
2023-02-18T14:55:30.349Z,10.74
2023-02-18T14:58:06.080Z,10.71
2023-02-18T15:00:41.458Z,10.67
2023-02-18T15:03:17.022Z,10.68
2023-02-18T15:05:47.903Z,10.70
2023-02-18T15:08:19.654Z,10.72
2023-02-18T15:10:55.734Z,10.76
2023-02-18T15:13:29.462Z,10.73
2023-02-18T15:16:05.527Z,10.70
2023-02-18T15:18:40.388Z,10.70
2023-02-18T15:21:20.371Z,10.71
2023-02-18T15:23:49.584Z,10.69
2023-02-18T15:26:20.275Z,10.71
2023-02-18T15:29:00.708Z,10.66
2023-02-18T15:31:40.828Z,10.69
2023-02-18T15:34:39.866Z,10.68
2023-02-18T15:37:14.180Z,10.66
2023-02-18T15:39:45.200Z,10.62
2023-02-18T15:42:32.576Z,10.63
2023-02-18T15:45:19.981Z,10.59
2023-02-18T15:47:54.682Z,10.59
2023-02-18T15:50:29.451Z,10.63
2023-02-18T15:53:01.630Z,10.66
2023-02-18T15:55:36.140Z,10.64
2023-02-18T15:58:09.962Z,10.62
2023-02-18T16:00:44.144Z,10.62
2023-02-18T16:03:21.333Z,10.63
2023-02-18T16:06:09.159Z,10.60
2023-02-18T16:08:37.866Z,10.52
2023-02-18T16:11:10.991Z,10.52
2023-02-18T16:13:48.769Z,10.56
2023-02-18T16:16:29.393Z,10.53
2023-02-18T16:18:59.486Z,10.54
2023-02-18T16:21:39.562Z,10.53
2023-02-18T16:24:28.713Z,10.54
2023-02-18T16:27:00.159Z,10.54
2023-02-18T16:29:36.540Z,10.56
2023-02-18T16:32:06.648Z,10.53
2023-02-18T16:34:35.829Z,10.50
2023-02-18T16:37:23.842Z,10.47
2023-02-18T16:39:55.310Z,10.47
2023-02-18T16:42:24.558Z,10.46
2023-02-18T16:44:53.936Z,10.49
2023-02-18T16:47:24.015Z,10.49
2023-02-18T16:49:53.222Z,10.49
2023-02-18T16:52:24.596Z,10.42
2023-02-18T16:54:55.292Z,10.44
2023-02-18T16:57:24.360Z,10.41
2023-02-18T16:59:54.885Z,10.40
2023-02-18T17:02:24.906Z,10.41
2023-02-18T17:04:57.492Z,10.40
2023-02-18T17:07:28.046Z,10.37
2023-02-18T17:09:57.926Z,10.35
2023-02-18T17:12:27.151Z,10.34
2023-02-18T17:14:57.143Z,10.27
2023-02-18T17:17:28.503Z,10.30
2023-02-18T17:19:58.589Z,10.31
2023-02-18T17:22:29.448Z,10.32
2023-02-18T17:24:58.941Z,10.28
2023-02-18T17:27:28.899Z,10.28
2023-02-18T17:29:59.524Z,10.27
2023-02-18T17:32:30.077Z,10.23
2023-02-18T17:34:59.080Z,10.24
2023-02-18T17:37:29.827Z,10.15
2023-02-18T17:39:59.865Z,10.16
2023-02-18T17:42:29.858Z,10.16
2023-02-18T17:45:00.380Z,10.11
2023-02-18T17:47:30.290Z,10.10
2023-02-18T17:49:59.707Z,10.07
2023-02-18T17:52:33.636Z,10.04
2023-02-18T17:55:03.974Z,10.06
2023-02-18T17:57:32.773Z,9.97
2023-02-18T18:00:02.884Z,10.00
2023-02-18T18:02:33.367Z,9.98
2023-02-18T18:05:01.808Z,9.99
2023-02-18T18:07:33.907Z,9.97
2023-02-18T18:10:03.939Z,9.96
2023-02-18T18:12:33.665Z,9.94
2023-02-18T18:15:04.839Z,9.94
2023-02-18T18:17:33.769Z,9.93
2023-02-18T18:20:03.763Z,9.98
2023-02-18T18:22:33.680Z,9.97
2023-02-18T18:25:04.763Z,10.00
2023-02-18T18:27:33.591Z,9.96
2023-02-18T18:30:04.979Z,9.99
2023-02-18T18:32:34.618Z,9.96
2023-02-18T18:35:05.160Z,9.93
2023-02-18T18:37:36.030Z,9.96
2023-02-18T18:40:06.783Z,9.95
2023-02-18T18:42:35.727Z,9.95
2023-02-18T18:45:05.874Z,9.97
2023-02-18T18:47:35.773Z,9.94
2023-02-18T18:50:05.406Z,9.93
2023-02-18T18:52:36.768Z,9.93
2023-02-18T18:55:08.308Z,9.90
2023-02-18T18:57:39.322Z,9.92
2023-02-18T19:00:12.733Z,9.90
2023-02-18T19:02:42.734Z,9.89
2023-02-18T19:05:30.461Z,9.86
2023-02-18T19:08:03.099Z,9.81
2023-02-18T19:10:35.294Z,9.77
2023-02-18T19:13:06.036Z,9.80
2023-02-18T19:15:36.215Z,9.82
2023-02-18T19:18:05.648Z,9.82
2023-02-18T19:20:37.715Z,9.81
2023-02-18T19:23:08.278Z,9.77
2023-02-18T19:25:37.736Z,9.79
2023-02-18T19:28:08.800Z,9.80
2023-02-18T19:30:38.238Z,9.79
2023-02-18T19:33:08.824Z,9.82
2023-02-18T19:35:41.762Z,9.83
2023-02-18T19:38:14.482Z,9.82
2023-02-18T19:40:43.724Z,9.79
2023-02-18T19:43:14.351Z,9.71
2023-02-18T19:45:46.767Z,9.73
2023-02-18T19:48:18.206Z,9.74
2023-02-18T19:50:48.008Z,9.73
2023-02-18T19:53:18.954Z,9.74
2023-02-18T19:55:56.910Z,9.71
2023-02-18T19:58:25.920Z,9.70
2023-02-18T20:00:55.537Z,9.68
2023-02-18T20:03:25.591Z,9.67
2023-02-18T20:05:55.546Z,9.68
2023-02-18T20:08:26.584Z,9.68
2023-02-18T20:10:59.953Z,9.59
2023-02-18T20:13:29.794Z,9.60
2023-02-18T20:15:59.542Z,9.63
2023-02-18T20:18:28.475Z,9.63
2023-02-18T20:20:57.959Z,9.65
2023-02-18T20:23:28.426Z,9.68
2023-02-18T20:25:59.214Z,9.73
2023-02-18T20:28:30.065Z,9.75
2023-02-18T20:31:08.171Z,9.76
2023-02-18T20:33:36.967Z,9.77
2023-02-18T20:36:08.661Z,9.76
2023-02-18T20:38:39.601Z,9.74
2023-02-18T20:41:12.117Z,9.74
2023-02-18T20:43:40.980Z,9.76
2023-02-18T20:46:14.113Z,9.78
2023-02-18T20:48:44.743Z,9.80
2023-02-18T20:51:16.718Z,9.75
2023-02-18T20:53:49.315Z,9.73
2023-02-18T20:56:20.348Z,9.72
2023-02-18T20:58:50.243Z,9.71
2023-02-18T21:01:21.607Z,9.71
2023-02-18T21:03:50.900Z,9.65
2023-02-18T21:06:22.448Z,9.68
2023-02-18T21:08:54.967Z,9.72
2023-02-18T21:11:27.645Z,9.71
2023-02-18T21:13:59.049Z,9.70
2023-02-18T21:16:32.830Z,9.69
2023-02-18T21:19:01.631Z,9.64
2023-02-18T21:21:30.605Z,9.64
2023-02-18T21:24:00.415Z,9.63
2023-02-18T21:26:30.497Z,9.56
2023-02-18T21:29:05.389Z,9.57
2023-02-18T21:31:38.476Z,9.59
2023-02-18T21:34:12.975Z,9.47
2023-02-18T21:36:42.388Z,9.49
2023-02-18T21:39:13.092Z,9.53
2023-02-18T21:41:44.071Z,9.50
2023-02-18T21:44:15.683Z,9.48
2023-02-18T21:46:45.306Z,9.46
2023-02-18T21:49:16.288Z,9.48
2023-02-18T21:52:09.066Z,9.43
2023-02-18T21:54:42.045Z,9.50
2023-02-18T21:57:13.774Z,9.47
2023-02-18T21:59:43.696Z,9.50
2023-02-18T22:02:19.407Z,9.50
2023-02-18T22:04:49.928Z,9.52
2023-02-18T22:07:21.912Z,9.54
2023-02-18T22:09:55.665Z,9.50
2023-02-18T22:12:25.911Z,9.50
2023-02-18T22:14:55.381Z,9.55
2023-02-18T22:17:24.925Z,9.56
2023-02-18T22:19:54.129Z,9.56
2023-02-18T22:22:22.596Z,9.55
2023-02-18T22:24:54.048Z,9.56
2023-02-18T22:27:25.144Z,9.55
2023-02-18T22:29:54.666Z,9.57
2023-02-18T22:32:24.232Z,9.60
2023-02-18T22:34:54.723Z,9.54
2023-02-18T22:37:23.166Z,9.55
2023-02-18T22:39:53.478Z,9.60
2023-02-18T22:42:21.918Z,9.58
2023-02-18T22:44:50.914Z,9.63
2023-02-18T22:47:20.062Z,9.65
2023-02-18T22:49:50.161Z,9.63
2023-02-18T22:52:19.176Z,9.63
2023-02-18T22:54:48.725Z,9.62
2023-02-18T22:57:18.500Z,9.63
2023-02-18T22:59:48.660Z,9.60
2023-02-18T23:02:18.055Z,9.62
2023-02-18T23:04:48.276Z,9.66
2023-02-18T23:07:19.075Z,9.68
2023-02-18T23:09:48.518Z,9.69
2023-02-18T23:12:19.036Z,9.67
2023-02-18T23:14:49.070Z,9.65
2023-02-18T23:17:18.979Z,9.67
2023-02-18T23:19:50.158Z,9.69
2023-02-18T23:22:28.303Z,9.70
2023-02-18T23:24:58.938Z,9.72
2023-02-18T23:27:29.270Z,9.73
2023-02-18T23:29:58.370Z,9.71
2023-02-18T23:32:28.350Z,9.74
2023-02-18T23:34:58.348Z,9.74
2023-02-18T23:37:43.993Z,9.76
2023-02-18T23:40:15.322Z,9.73
2023-02-18T23:42:47.165Z,9.74
2023-02-18T23:45:17.867Z,9.75
2023-02-18T23:47:47.291Z,9.76
2023-02-18T23:50:17.846Z,9.77
2023-02-18T23:52:51.300Z,9.75
2023-02-18T23:55:20.852Z,9.75
2023-02-18T23:57:51.178Z,9.76
